Latest Coastal Weather Observations for St Lawrence

IDQ60701

Issued at 10:12 am EST Tuesday 27 September 2016 (issued every 10 minutes, with the page automatically refreshed every 10 minutes)

About coastal observations | Map of coastal stations | Coastal observations for QLD | Marine services | Other Formats
Station Details ID: 033210 Name: ST LAWRENCE Lat: -22.35 Lon: 149.52 Height: 9.19 m
Data from the previous 72 hours. | See also: Recent months at St Lawrence
Date/Time
EST
Temp
°C
Wind Pressure Rain since
9am
mm
Weather Cloud Vis
km
Sea
Height
m
Swell
Dir  Spd
kts
Gust
kts
hPa Trend Height
m
Period
s
Dir
27/10:00am 26.3 SSE 8 12 1016.0 - 0.0 - - - - - - -
27/09:30am 24.7 SSE 8 11 1015.9 - 0.0 - - - - - - -
27/09:00am 24.4 S 7 11 1016.2 - 0.0 - - - - - - -
27/08:30am 23.1 S 6 9 1015.9 - 0.0 - - - - - - -
27/08:00am 21.4 S 1 5 1015.8 - 0.0 - - - - - - -
27/07:30am 19.1 SSW 4 5 1015.8 - 0.0 - - - - - - -
27/07:00am 17.6 WSW 2 4 1015.1 - 0.0 - - - - - - -
27/06:30am 16.4 CALM 0 3 1014.4 - 0.0 - - - - - - -
27/06:00am 16.2 SSE 7 10 1014.3 - 0.0 - - - - - - -
27/05:30am 15.4 S 8 10 1014.1 - 0.0 - - - - - - -
27/05:00am 15.0 SSW 3 5 1013.1 - 0.0 - - - - - - -
27/04:30am 15.0 CALM 0 0 1012.8 - 0.0 - - - - - - -
27/04:00am 15.1 CALM 0 0 1012.6 - 0.0 - - - - - - -
27/03:30am 15.3 SSW 1 3 1012.5 - 0.0 - - - - - - -
27/03:00am 15.7 SW 2 4 1012.6 - 0.0 - - - - - - -
27/02:30am 15.9 CALM 0 0 1012.4 - 0.0 - - - - - - -
27/02:00am 16.1 SW 2 4 1013.0 - 0.0 - - - - - - -
27/01:30am 16.4 WSW 3 4 1013.3 - 0.0 - - - - - - -
27/01:00am 16.6 WSW 3 4 1013.5 - 0.0 - - - - - - -
27/12:30am 16.6 CALM 0 0 1013.6 - 0.0 - - - - - - -
27/12:00am 17.5 CALM 0 3 1013.9 - 0.0 - - - - - - -
 
Date/Time
EST
Temp
°C
Wind Pressure Rain since
9am
mm
Weather Cloud Vis
km
Sea
Height
m
Swell
Dir  Spd
kts
Gust
kts
hPa Trend Height
m
Period
s
Dir
26/11:30pm 18.2 WSW 4 5 1013.7 - 0.0 - - - - - - -
26/11:00pm 18.3 W 2 4 1013.7 - 0.0 - - - - - - -
26/10:30pm 18.3 CALM 0 0 1013.8 - 0.0 - - - - - - -
26/10:00pm 19.0 CALM 0 0 1014.0 - 0.0 - - - - - - -
26/09:30pm 19.6 CALM 0 0 1014.0 - 0.0 - - - - - - -
26/09:00pm 20.1 WNW 3 3 1013.9 - 0.0 - - - - - - -
26/08:30pm 22.1 N 4 5 1013.7 - 0.0 - - - - - - -
26/08:00pm 22.6 N 5 7 1013.3 - 0.0 - - - - - - -
26/07:30pm 22.9 NNE 7 8 1012.9 - 0.0 - - - - - - -
26/07:00pm 22.9 NNE 7 9 1012.5 - 0.0 - - - - - - -
26/06:30pm 23.3 NNE 7 10 1012.1 - 0.0 - - - - - - -
26/06:00pm 23.7 NE 8 12 1011.6 - 0.0 - - - - - - -
26/05:30pm 24.6 NE 9 13 1011.2 - 0.0 - - - - - - -
26/05:00pm 25.5 NE 10 12 1010.8 - 0.0 - - - - - - -
26/04:30pm 26.8 NE 9 11 1010.6 - 0.0 - - - - - - -
26/04:00pm 28.0 NNE 10 14 1010.2 - 0.0 - - - - - - -
26/03:30pm 31.4 WNW 5 7 1010.0 - 0.0 - - - - - - -
26/03:00pm 31.2 WNW 7 12 1010.1 - 0.0 - - - - - - -
26/02:30pm 30.8 SSW 4 7 1010.2 - 0.0 - - - - - - -
26/02:00pm 30.2 SSW 6 11 1010.5 - 0.0 - - - - - - -
26/01:30pm 29.9 ENE 4 11 1010.9 - 0.0 - - - - - - -
26/01:00pm 29.1 SE 3 9 1011.2 - 0.0 - - - - - - -
26/12:30pm 28.8 WNW 3 7 1011.9 - 0.0 - - - - - - -
26/12:00pm 28.6 SW 5 9 1012.4 - 0.0 - - - - - - -
26/11:30am 27.3 SSE 7 11 1013.1 - 0.0 - - - - - - -
26/11:00am 27.2 S 8 12 1013.7 - 0.0 - - - - - - -
26/10:30am 26.7 S 8 12 1014.1 - 0.0 - - - - - - -
26/10:00am 25.9 SSE 7 12 1014.3 - 0.0 - - - - - - -
26/09:30am 25.0 S 10 14 1014.6 - 0.0 - - - - - - -
26/09:00am 24.9 S 9 14 1014.8 - 0.0 - - - - - - -
26/08:30am 24.0 S 8 14 1014.8 - 0.0 - - - - - - -
26/08:00am 23.0 S 7 12 1014.6 - 0.0 - - - - - - -
26/07:30am 21.7 SSW 3 7 1014.2 - 0.0 - - - - - - -
26/07:00am 19.1 WSW 3 4 1013.9 - 0.0 - - - - - - -
26/06:30am 17.1 W 5 6 1013.4 - 0.0 - - - - - - -
26/06:00am 17.8 SW 3 4 1012.9 - 0.0 - - - - - - -
26/05:30am 17.2 SW 4 6 1012.5 - 0.0 - - - - - - -
26/05:00am 17.0 CALM 0 0 1012.2 - 0.0 - - - - - - -
26/04:30am 17.6 S 2 3 1011.8 - 0.0 - - - - - - -
26/04:00am 19.3 SSE 5 7 1011.3 - 0.0 - - - - - - -
26/03:30am 18.8 S 5 7 1010.9 - 0.0 - - - - - - -
26/03:00am 19.5 CALM 0 0 1010.8 - 0.0 - - - - - - -
26/02:30am 20.2 CALM 0 0 1010.7 - 0.0 - - - - - - -
26/02:00am 20.9 SSE 4 7 1010.6 - 0.0 - - - - - - -
26/01:30am 21.1 SE 1 3 1010.7 - 0.0 - - - - - - -
26/01:00am 21.7 CALM 0 0 1010.8 - 0.0 - - - - - - -
26/12:30am 21.9 CALM 0 0 1010.9 - 0.0 - - - - - - -
26/12:00am 22.3 CALM 0 0 1011.0 - 0.0 - - - - - - -
 
Date/Time
EST
Temp
°C
Wind Pressure Rain since
9am
mm
Weather Cloud Vis
km
Sea
Height
m
Swell
Dir  Spd
kts
Gust
kts
hPa Trend Height
m
Period
s
Dir
25/11:30pm 21.9 CALM 0 0 1011.2 - 0.0 - - - - - - -
25/11:00pm 21.7 CALM 0 0 1011.0 - 0.0 - - - - - - -
25/10:30pm 22.1 CALM 0 0 1011.0 - 0.0 - - - - - - -
25/10:00pm 22.4 CALM 0 0 1011.0 - 0.0 - - - - - - -
25/09:30pm 22.7 S 3 4 1010.8 - 0.0 - - - - - - -
25/09:00pm 22.7 SSW 2 5 1010.6 - 0.0 - - - - - - -
25/08:30pm 23.5 CALM 0 0 1010.3 - 0.0 - - - - - - -
25/08:00pm 23.8 S 3 5 1010.1 - 0.0 - - - - - - -
25/07:30pm 24.6 CALM 0 0 1009.6 - 0.0 - - - - - - -
25/07:00pm 24.9 CALM 0 0 1009.2 - 0.0 - - - - - - -
25/06:30pm 25.6 NE 3 4 1008.7 - 0.0 - - - - - - -
25/06:00pm 26.1 NNE 6 8 1008.2 - 0.0 - - - - - - -
25/05:30pm 27.0 NNE 8 12 1007.8 - 0.0 - - - - - - -
25/05:00pm 27.5 N 10 14 1007.2 - 0.0 - - - - - - -
25/04:30pm 27.6 NNE 10 13 1006.9 - 0.0 - - - - - - -
25/04:00pm 27.8 NNE 10 15 1006.7 - 0.0 - - - - - - -
25/03:30pm 27.9 NNE 12 16 1006.9 - 0.0 - - - - - - -
25/03:00pm 29.4 NE 11 16 1006.8 - 0.0 - - - - - - -
25/02:30pm 30.5 NE 11 16 1006.9 - 0.0 - - - - - - -
25/02:00pm 29.6 NE 12 17 1007.3 - 0.0 - - - - - - -
25/01:30pm 29.7 NNE 11 15 1007.7 - 0.0 - - - - - - -
25/01:00pm 30.0 NE 12 15 1008.0 - 0.0 - - - - - - -
25/12:30pm 30.0 NE 9 14 1008.4 - 0.0 - - - - - - -
25/12:00pm 29.5 NE 8 12 1008.9 - 0.0 - - - - - - -
25/11:30am 28.8 NE 8 13 1009.6 - 0.0 - - - - - - -
25/11:00am 29.7 E 7 11 1009.8 - 0.0 - - - - - - -
25/10:30am 30.4 NE 1 6 1009.9 - 0.0 - - - - - - -
25/10:00am 28.9 N 3 7 1010.5 - 0.0 - - - - - - -
25/09:30am 28.2 ENE 1 5 1010.4 - 0.0 - - - - - - -
25/09:00am 27.3 E 2 5 1010.8 - 0.0 - - - - - - -
25/08:30am 26.4 NNW 3 7 1010.8 - 0.0 - - - - - - -
25/08:00am 25.6 NE 3 5 1010.9 - 0.0 - - - - - - -
25/07:30am 24.1 NE 3 5 1010.6 - 0.0 - - - - - - -
25/07:00am 21.7 CALM 0 0 1010.4 - 0.0 - - - - - - -
25/06:30am 20.2 CALM 0 0 1010.0 - 0.0 - - - - - - -
25/06:00am 19.6 CALM 0 1 1009.7 - 0.0 - - - - - - -
25/05:30am 20.2 CALM 0 0 1009.3 - 0.0 - - - - - - -
25/05:00am 20.7 CALM 0 1 1008.9 - 0.0 - - - - - - -
25/04:30am 20.7 CALM 0 0 1008.7 - 0.0 - - - - - - -
25/04:00am 21.0 CALM 0 0 1008.5 - 0.0 - - - - - - -
25/03:30am 22.0 NNE 3 5 1008.4 - 0.0 - - - - - - -
25/03:00am 21.3 NE 3 3 1008.3 - 0.0 - - - - - - -
25/02:30am 21.2 CALM 0 0 1008.5 - 0.0 - - - - - - -
25/02:00am 22.0 CALM 0 0 1008.6 - 0.0 - - - - - - -
25/01:30am 22.7 NW 1 4 1008.7 - 0.0 - - - - - - -
25/01:00am 23.8 N 6 8 1008.9 - 0.0 - - - - - - -
25/12:30am 24.3 NNE 9 12 1009.1 - 0.0 - - - - - - -
25/12:00am 24.7 N 7 11 1009.4 - 0.0 - - - - - - -
 
Date/Time
EST
Temp
°C
Wind Pressure Rain since
9am
mm
Weather Cloud Vis
km
Sea
Height
m
Swell
Dir  Spd
kts
Gust
kts
hPa Trend Height
m
Period
s
Dir
24/11:30pm 24.9 NNE 7 10 1009.6 - 0.0 - - - - - - -
24/11:00pm 25.1 N 8 11 1009.7 - 0.0 - - - - - - -
24/10:30pm 25.1 N 7 10 1009.7 - 0.0 - - - - - - -
24/10:00pm 25.1 N 6 9 1009.7 - 0.0 - - - - - - -
24/09:30pm 24.9 NNE 7 11 1009.5 - 0.0 - - - - - - -
24/09:00pm 24.9 N 8 11 1009.4 - 0.0 - - - - - - -
24/08:30pm 24.8 NNE 11 14 1009.3 - 0.0 - - - - - - -
24/08:00pm 24.9 NNE 10 15 1009.0 - 0.0 - - - - - - -
24/07:30pm 24.8 NNE 11 16 1008.8 - 0.0 - - - - - - -
24/07:00pm 24.8 NNE 10 16 1008.7 - 0.0 - - - - - - -
24/06:30pm 24.9 NNE 11 17 1008.3 - 0.0 - - - - - - -
24/06:00pm 25.1 NNE 10 15 1008.2 - 0.0 - - - - - - -
24/05:30pm 25.3 NNE 11 15 1007.8 - 0.0 - - - - - - -
24/05:00pm 25.8 NNE 13 17 1007.5 - 0.0 - - - - - - -
24/04:30pm 25.8 NNE 13 18 1007.5 - 0.0 - - - - - - -
24/04:00pm 26.3 NNE 13 18 1007.6 - 0.0 - - - - - - -
24/03:30pm 26.9 NNE 13 19 1007.5 - 0.0 - - - - - - -
24/03:00pm 27.2 NE 13 18 1007.6 - 0.0 - - - - - - -
24/02:30pm 27.0 NNE 13 19 1008.0 - 0.0 - - - - - - -
24/02:00pm 27.2 NE 13 17 1008.4 - 0.0 - - - - - - -
24/01:30pm 27.3 NE 13 17 1008.9 - 0.0 - - - - - - -
24/01:00pm 27.4 NE 12 16 1009.5 - 0.0 - - - - - - -
24/12:30pm 27.2 NE 12 18 1010.0 - 0.0 - - - - - - -
24/12:00pm 28.1 NE 11 17 1010.6 - 0.0 - - - - - - -
24/11:30am 26.5 NE 9 13 1011.1 - 0.0 - - - - - - -
24/11:00am 26.7 NE 9 11 1011.5 - 0.0 - - - - - - -
24/10:30am 26.9 NE 8 11 1012.0 - 0.0 - - - - - - -

Other Formats:

Comma delimited format used in spreadsheet applications
http://www.bom.gov.au/fwo/IDQ60701/IDQ60701.95369.axf

JavaScript Object Notation format (JSON) in row-major order
http://www.bom.gov.au/fwo/IDQ60701/IDQ60701.95369.json